Time;durP1;ratioP1;P1;durP2;ratioP2;P2;SDS_P1;SDS_P2;PMS_P1;PMS_P2;Temp;Humidity;BMP_temperature;BMP_pressure;BME280_temperature;BME280_humidity;BME280_pressure;Samples;Min_cycle;Max_cycle;Signal;HPM_P1;HPM_P2
2022/08/10 00:01:36;;;;;;;1.23;0.52;;;18.00;93.20;;;;;;4700426;30;20052;-73
2022/08/10 00:04:03;;;;;;;1.85;0.50;;;18.00;93.40;;;;;;4698506;30;20059;-73
2022/08/10 00:06:33;;;;;;;3.45;0.63;;;17.90;93.50;;;;;;4709822;30;20383;-73
2022/08/10 00:08:59;;;;;;;1.52;0.38;;;17.90;93.50;;;;;;4708916;30;20068;-73
2022/08/10 00:11:26;;;;;;;1.10;0.35;;;17.90;93.50;;;;;;4704844;30;20506;-73
2022/08/10 00:13:54;;;;;;;1.60;0.70;;;17.80;93.60;;;;;;4708636;30;20057;-73
2022/08/10 00:16:22;;;;;;;1.83;0.60;;;17.80;93.80;;;;;;4713373;30;20077;-73
2022/08/10 00:18:48;;;;;;;0.80;0.40;;;17.80;94.00;;;;;;4710812;30;20053;-74
2022/08/10 00:21:15;;;;;;;2.13;0.60;;;17.80;94.00;;;;;;4712053;30;20041;-73
2022/08/10 00:23:41;;;;;;;1.65;0.57;;;17.80;94.10;;;;;;4709154;30;20550;-74
2022/08/10 00:26:07;;;;;;;1.30;0.60;;;17.80;94.30;;;;;;4702776;30;20049;-73
2022/08/10 00:28:34;;;;;;;1.00;0.50;;;17.70;94.40;;;;;;4703863;30;20062;-76
2022/08/10 00:31:01;;;;;;;0.88;0.50;;;17.80;94.60;;;;;;4715695;30;20069;-76
2022/08/10 00:33:27;;;;;;;1.85;0.50;;;17.80;94.60;;;;;;4714325;30;20033;-76
2022/08/10 00:35:54;;;;;;;1.73;0.50;;;17.70;94.70;;;;;;4717302;30;20040;-76
2022/08/10 00:38:21;;;;;;;2.88;0.60;;;17.70;94.70;;;;;;4726575;30;20044;-76
2022/08/10 00:40:47;;;;;;;0.75;0.40;;;17.70;94.80;;;;;;4714907;30;20052;-76
2022/08/10 00:43:13;;;;;;;2.00;0.50;;;17.70;95.00;;;;;;4690853;30;20052;-76
2022/08/10 00:45:43;;;;;;;1.00;0.40;;;17.70;95.00;;;;;;4704436;30;20049;-76
2022/08/10 00:48:09;;;;;;;0.70;0.40;;;17.70;95.10;;;;;;4701633;30;20038;-76
2022/08/10 00:50:36;;;;;;;1.67;0.50;;;17.60;95.10;;;;;;4714299;30;20033;-76
2022/08/10 00:53:03;;;;;;;1.00;0.40;;;17.60;95.20;;;;;;4711806;30;20405;-76
2022/08/10 00:55:30;;;;;;;2.15;0.82;;;17.60;95.50;;;;;;4702568;30;20517;-76
2022/08/10 00:57:57;;;;;;;0.80;0.47;;;17.50;95.50;;;;;;4707538;30;20387;-76
2022/08/10 01:00:24;;;;;;;1.17;0.50;;;17.50;95.50;;;;;;4703132;30;20048;-76
2022/08/10 01:02:51;;;;;;;1.52;0.50;;;17.50;95.60;;;;;;4703925;30;20049;-76
2022/08/10 01:05:19;;;;;;;0.90;0.50;;;17.40;95.80;;;;;;4703112;30;20037;-76
2022/08/10 01:07:51;;;;;;;0.98;0.40;;;17.40;95.80;;;;;;4720527;30;20041;-76
2022/08/10 01:10:31;;;;;;;1.42;0.57;;;17.40;95.90;;;;;;4712508;30;20050;-76
2022/08/10 01:13:06;;;;;;;1.10;0.40;;;17.30;96.10;;;;;;4716170;30;20056;-77
2022/08/10 01:15:39;;;;;;;0.90;0.70;;;17.30;96.10;;;;;;4715169;30;20082;-76
2022/08/10 01:18:22;;;;;;;0.80;0.50;;;17.30;96.20;;;;;;4704191;30;20045;-76
2022/08/10 01:20:57;;;;;;;0.73;0.50;;;17.20;96.40;;;;;;4717689;30;20052;-73
2022/08/10 01:23:56;;;;;;;1.00;0.70;;;17.20;96.50;;;;;;4712061;30;20040;-73
2022/08/10 01:26:44;;;;;;;1.35;0.60;;;17.20;96.70;;;;;;4715630;30;20049;-73
2022/08/10 01:29:48;;;;;;;4.28;1.08;;;17.10;96.80;;;;;;4709769;30;20049;-73
2022/08/10 01:32:23;;;;;;;2.17;0.60;;;17.10;97.10;;;;;;4709901;30;20033;-72
2022/08/10 01:35:10;;;;;;;2.58;0.85;;;17.10;97.20;;;;;;4709322;30;20058;-73
2022/08/10 01:37:42;;;;;;;3.55;0.70;;;17.10;97.40;;;;;;4701191;30;20049;-73
2022/08/10 01:40:12;;;;;;;1.65;0.73;;;17.00;97.60;;;;;;4705232;30;20448;-73
2022/08/10 01:42:42;;;;;;;1.10;0.73;;;17.00;97.70;;;;;;4712708;30;20085;-73
2022/08/10 01:45:15;;;;;;;2.00;0.73;;;17.00;97.80;;;;;;4703149;30;20423;-72
2022/08/10 01:50:43;;;;;;;1.40;0.68;;;17.00;98.00;;;;;;4707731;30;20033;-73
2022/08/10 01:53:17;;;;;;;1.27;0.70;;;16.90;98.00;;;;;;4699614;30;20052;-76
2022/08/10 01:55:45;;;;;;;1.30;0.63;;;16.90;98.10;;;;;;4702713;30;20068;-76
2022/08/10 01:58:19;;;;;;;1.27;0.73;;;16.90;98.30;;;;;;4702300;30;20505;-76
2022/08/10 02:00:51;;;;;;;1.08;0.70;;;16.80;98.40;;;;;;4701959;30;20057;-76
2022/08/10 02:03:20;;;;;;;1.27;0.70;;;16.80;98.50;;;;;;4701536;30;20041;-76
2022/08/10 02:05:52;;;;;;;1.92;0.70;;;16.80;98.60;;;;;;4711108;30;20058;-76
2022/08/10 02:08:23;;;;;;;1.27;0.80;;;16.80;98.80;;;;;;4714586;30;20037;-76
2022/08/10 02:10:54;;;;;;;1.20;0.70;;;16.70;99.00;;;;;;4713522;30;20311;-76
2022/08/10 02:13:22;;;;;;;1.52;1.00;;;16.70;99.00;;;;;;4712762;30;20505;-76
2022/08/10 02:15:50;;;;;;;1.58;1.08;;;16.70;99.30;;;;;;4717898;30;20049;-76
2022/08/10 02:18:18;;;;;;;2.63;1.10;;;16.60;99.30;;;;;;4706963;30;20048;-76
2022/08/10 02:20:48;;;;;;;2.50;0.90;;;16.60;99.60;;;;;;4706314;30;20044;-76
2022/08/10 02:23:23;;;;;;;2.95;0.80;;;16.60;99.70;;;;;;4700946;30;20052;-77
2022/08/10 02:25:51;;;;;;;3.00;1.50;;;16.60;99.90;;;;;;4718934;30;20509;-76
2022/08/10 02:28:20;;;;;;;2.00;0.90;;;16.60;99.90;;;;;;4710138;30;20510;-77
2022/08/10 02:30:48;;;;;;;1.67;1.08;;;16.50;99.90;;;;;;4709460;30;20037;-77
2022/08/10 02:33:17;;;;;;;2.45;0.85;;;16.50;99.90;;;;;;4709750;30;20037;-76
2022/08/10 02:35:46;;;;;;;2.45;1.10;;;16.50;99.90;;;;;;4698875;30;20037;-76
2022/08/10 02:38:16;;;;;;;2.78;1.50;;;16.40;99.90;;;;;;4701530;30;20033;-76
2022/08/10 02:40:47;;;;;;;1.77;0.80;;;16.40;99.90;;;;;;4706960;30;20041;-76
2022/08/10 02:43:33;;;;;;;2.03;0.90;;;16.40;99.90;;;;;;4709285;30;20037;-77
2022/08/10 02:46:09;;;;;;;1.70;1.30;;;16.40;99.90;;;;;;4703464;30;20045;-76
2022/08/10 02:48:57;;;;;;;2.38;1.35;;;16.30;99.90;;;;;;4697052;30;20368;-76
2022/08/10 02:51:30;;;;;;;2.20;1.10;;;16.30;99.90;;;;;;4709514;30;20359;-73
2022/08/10 02:54:05;;;;;;;1.75;1.13;;;16.30;99.90;;;;;;4683119;30;20036;-73
2022/08/10 02:56:42;;;;;;;1.65;0.98;;;16.20;99.90;;;;;;4712899;30;20502;-73
2022/08/10 02:59:18;;;;;;;1.88;1.17;;;16.20;99.90;;;;;;4697634;30;20072;-73
2022/08/10 03:01:48;;;;;;;2.25;1.60;;;16.20;99.90;;;;;;4708345;30;20359;-73
2022/08/10 03:04:22;;;;;;;2.95;1.65;;;16.20;99.90;;;;;;4697627;30;20041;-73
2022/08/10 03:07:02;;;;;;;1.80;1.25;;;16.10;99.90;;;;;;4699432;30;20044;-73
2022/08/10 03:09:32;;;;;;;1.75;1.00;;;16.10;99.90;;;;;;4709841;30;20383;-73
2022/08/10 03:12:00;;;;;;;1.80;1.10;;;16.10;99.90;;;;;;4708661;30;20048;-73
2022/08/10 03:14:29;;;;;;;1.67;1.10;;;16.10;99.90;;;;;;4711145;30;20045;-73
2022/08/10 03:16:56;;;;;;;2.55;1.42;;;16.10;99.90;;;;;;4714530;30;20358;-73
2022/08/10 03:19:23;;;;;;;1.88;1.30;;;16.00;99.90;;;;;;4713807;30;20046;-72
2022/08/10 03:21:52;;;;;;;2.83;1.80;;;16.00;99.90;;;;;;4696733;30;20036;-73
2022/08/10 03:24:21;;;;;;;2.63;1.80;;;16.00;99.90;;;;;;4712173;30;20041;-73
2022/08/10 03:26:49;;;;;;;3.85;1.98;;;15.90;99.90;;;;;;4711858;30;20045;-73
2022/08/10 03:29:18;;;;;;;2.33;1.52;;;15.90;99.90;;;;;;4705509;30;20060;-73
2022/08/10 03:31:46;;;;;;;3.05;1.70;;;15.90;99.90;;;;;;4711392;30;20033;-73
2022/08/10 03:34:14;;;;;;;3.08;1.00;;;15.90;99.90;;;;;;4703077;30;20036;-73
2022/08/10 03:36:41;;;;;;;2.60;1.30;;;15.90;99.90;;;;;;4702810;30;20042;-73
2022/08/10 03:39:08;;;;;;;2.83;1.20;;;15.80;99.90;;;;;;4710236;30;20052;-73
2022/08/10 03:41:47;;;;;;;2.97;2.45;;;15.80;99.90;;;;;;4698953;30;20045;-73
2022/08/10 03:44:19;;;;;;;4.25;2.80;;;15.80;99.90;;;;;;4712835;30;20041;-73
2022/08/10 03:46:47;;;;;;;3.33;2.28;;;15.80;99.90;;;;;;4711778;30;20048;-73
2022/08/10 03:49:17;;;;;;;4.28;2.33;;;15.70;99.90;;;;;;4720473;30;20056;-73
2022/08/10 03:51:48;;;;;;;3.67;2.28;;;15.70;99.90;;;;;;4712341;30;20105;-73
2022/08/10 03:54:16;;;;;;;3.00;2.20;;;15.70;99.90;;;;;;4700565;30;20368;-73
2022/08/10 03:56:43;;;;;;;3.15;2.22;;;15.70;99.90;;;;;;4710314;30;20041;-73
2022/08/10 03:59:14;;;;;;;3.83;2.67;;;15.70;99.90;;;;;;4700233;30;20052;-73
2022/08/10 04:01:45;;;;;;;2.97;2.65;;;15.70;99.90;;;;;;4710322;30;20044;-73
2022/08/10 04:04:12;;;;;;;3.28;2.80;;;15.70;99.90;;;;;;4717641;30;20045;-73
2022/08/10 04:06:39;;;;;;;4.05;2.47;;;15.70;99.90;;;;;;4712397;30;20049;-73
2022/08/10 04:09:06;;;;;;;4.35;2.85;;;15.70;99.90;;;;;;4703107;30;20053;-73
2022/08/10 04:11:33;;;;;;;3.17;2.88;;;15.60;99.90;;;;;;4713252;30;20046;-73
2022/08/10 04:13:59;;;;;;;3.47;2.58;;;15.60;99.90;;;;;;4710407;30;20033;-73
2022/08/10 04:16:26;;;;;;;4.50;3.33;;;15.60;99.90;;;;;;4716202;30;20072;-73
2022/08/10 04:18:52;;;;;;;3.72;1.90;;;15.50;99.90;;;;;;4701518;30;20045;-73
2022/08/10 04:21:30;;;;;;;4.72;2.20;;;15.50;99.90;;;;;;4700934;30;20053;-73
2022/08/10 04:23:59;;;;;;;3.92;2.60;;;15.50;99.90;;;;;;4710268;30;20033;-73
2022/08/10 04:26:26;;;;;;;4.63;2.35;;;15.50;99.90;;;;;;4715395;30;20040;-73
2022/08/10 04:28:53;;;;;;;3.95;2.72;;;15.50;99.90;;;;;;4713681;30;20049;-73
2022/08/10 04:31:21;;;;;;;5.40;3.65;;;15.50;99.90;;;;;;4709128;30;20037;-73
2022/08/10 04:33:49;;;;;;;3.45;2.65;;;15.60;99.90;;;;;;4716874;30;20433;-73
2022/08/10 04:36:19;;;;;;;3.22;2.92;;;15.60;99.90;;;;;;4710672;30;20411;-73
2022/08/10 04:38:48;;;;;;;3.90;3.17;;;15.60;99.90;;;;;;4703620;30;20056;-73
2022/08/10 04:41:15;;;;;;;7.45;5.43;;;15.60;99.90;;;;;;4712801;30;20038;-73
2022/08/10 04:43:42;;;;;;;4.07;3.03;;;15.60;99.90;;;;;;4711214;30;20049;-73
2022/08/10 04:46:08;;;;;;;4.30;3.38;;;15.60;99.90;;;;;;4699165;30;20045;-73
2022/08/10 04:48:35;;;;;;;3.40;3.08;;;15.60;99.90;;;;;;4704941;30;20040;-73
2022/08/10 04:51:01;;;;;;;4.38;3.75;;;15.60;99.90;;;;;;4713728;30;20052;-73
2022/08/10 04:53:27;;;;;;;5.97;4.50;;;15.70;99.90;;;;;;4686155;30;20041;-73
2022/08/10 04:55:54;;;;;;;5.05;3.63;;;15.60;99.90;;;;;;4697891;30;20534;-73
2022/08/10 04:58:20;;;;;;;3.83;2.80;;;15.70;99.90;;;;;;4713626;30;20052;-73
2022/08/10 05:00:47;;;;;;;4.78;4.10;;;15.80;99.90;;;;;;4701740;30;20060;-73
2022/08/10 05:03:13;;;;;;;3.85;3.50;;;15.90;99.90;;;;;;4699237;30;20059;-73
2022/08/10 05:05:42;;;;;;;4.35;3.88;;;15.90;99.90;;;;;;4697005;30;20041;-73
2022/08/10 05:08:08;;;;;;;4.90;3.70;;;16.10;99.90;;;;;;4698738;30;20049;-74
2022/08/10 05:10:35;;;;;;;4.93;4.15;;;16.30;99.90;;;;;;4717847;30;20037;-75
2022/08/10 05:13:01;;;;;;;4.65;3.63;;;16.50;99.90;;;;;;4687382;30;20049;-75
2022/08/10 05:15:48;;;;;;;4.68;3.20;;;16.60;99.90;;;;;;4706872;30;20049;-75
2022/08/10 05:18:21;;;;;;;4.43;3.50;;;16.70;99.90;;;;;;4715457;30;20048;-75
2022/08/10 05:20:48;;;;;;;;;;;16.70;99.90;;;;;;4711837;30;20050;-75
2022/08/10 05:23:14;;;;;;;6.50;3.92;;;16.80;99.90;;;;;;4697434;30;19919;-74
2022/08/10 05:25:44;;;;;;;9.13;6.65;;;16.80;99.90;;;;;;4694896;30;20097;-75
2022/08/10 05:28:10;;;;;;;7.70;6.35;;;16.80;99.90;;;;;;4684307;30;20382;-74
2022/08/10 05:30:37;;;;;;;6.15;5.15;;;16.90;99.90;;;;;;4688355;30;20097;-75
2022/08/10 05:33:06;;;;;;;7.32;4.22;;;17.00;99.90;;;;;;4699667;30;20061;-74
2022/08/10 05:35:42;;;;;;;6.45;5.50;;;17.10;99.90;;;;;;4692574;30;20056;-75
2022/08/10 05:38:14;;;;;;;4.88;4.38;;;17.10;99.90;;;;;;4700334;30;20050;-74
2022/08/10 05:40:43;;;;;;;;;;;17.30;99.90;;;;;;4708278;30;20042;-74
2022/08/10 05:43:11;;;;;;;5.45;4.45;;;17.40;99.90;;;;;;4712290;30;20009;-74
2022/08/10 05:45:38;;;;;;;5.80;4.25;;;17.50;99.90;;;;;;4692866;30;20097;-74
2022/08/10 05:48:04;;;;;;;6.18;3.35;;;17.60;99.90;;;;;;4697073;30;20045;-74
2022/08/10 05:50:33;;;;;;;4.13;3.22;;;17.70;99.90;;;;;;4698948;30;20382;-74
2022/08/10 05:53:00;;;;;;;6.28;3.85;;;17.90;99.90;;;;;;4717163;30;20045;-74
2022/08/10 05:55:29;;;;;;;5.60;3.15;;;18.10;99.90;;;;;;4709016;30;20048;-74
2022/08/10 05:57:58;;;;;;;4.75;2.55;;;18.20;99.90;;;;;;4700011;30;20037;-74
2022/08/10 06:00:29;;;;;;;7.38;3.13;;;18.30;99.90;;;;;;4710373;30;20044;-75
2022/08/10 06:03:02;;;;;;;4.38;3.05;;;18.40;99.90;;;;;;4711034;30;20037;-74
2022/08/10 06:05:33;;;;;;;5.75;3.58;;;18.50;99.90;;;;;;4706969;30;20037;-74
2022/08/10 06:08:14;;;;;;;4.00;3.38;;;18.60;99.90;;;;;;4705692;30;20494;-74
2022/08/10 06:10:45;;;;;;;4.70;3.47;;;18.80;99.90;;;;;;4708173;30;20038;-77
2022/08/10 06:16:02;;;;;;;4.65;3.30;;;19.10;99.90;;;;;;4707446;30;20502;-77
2022/08/10 06:18:29;;;;;;;3.78;2.80;;;19.20;99.90;;;;;;4706095;30;20406;-76
2022/08/10 06:20:56;;;;;;;5.65;4.25;;;19.40;99.90;;;;;;4691696;30;20045;-75
2022/08/10 06:23:25;;;;;;;4.78;3.92;;;19.60;99.90;;;;;;4683373;30;20052;-79
2022/08/10 06:25:51;;;;;;;5.35;3.42;;;19.80;99.90;;;;;;4687670;30;20062;-75
2022/08/10 06:28:19;;;;;;;3.55;1.98;;;19.90;99.90;;;;;;4687826;30;20049;-78
2022/08/10 06:30:48;;;;;;;3.10;2.10;;;20.00;99.90;;;;;;4688790;30;20044;-75
2022/08/10 06:33:16;;;;;;;2.92;1.35;;;20.10;99.90;;;;;;4707362;30;20026;-75
2022/08/10 06:35:42;;;;;;;3.22;1.70;;;20.40;99.90;;;;;;4708686;30;20045;-75
2022/08/10 06:38:11;;;;;;;2.45;1.55;;;20.90;99.90;;;;;;4696910;30;20044;-75
2022/08/10 06:40:42;;;;;;;2.53;1.52;;;21.30;99.90;;;;;;4709518;30;20041;-75
2022/08/10 06:43:12;;;;;;;3.47;1.98;;;21.50;99.90;;;;;;4705822;30;20076;-75
2022/08/10 06:45:46;;;;;;;2.63;1.20;;;21.70;99.10;;;;;;4708951;30;20056;-76
2022/08/10 06:48:26;;;;;;;2.00;1.08;;;21.80;98.90;;;;;;4707993;30;20045;-75
2022/08/10 06:51:01;;;;;;;3.33;1.48;;;22.00;98.50;;;;;;4711606;30;20146;-75
2022/08/10 06:53:31;;;;;;;2.08;1.05;;;22.40;98.30;;;;;;4711206;30;20064;-75
2022/08/10 06:56:02;;;;;;;1.73;0.95;;;22.80;97.40;;;;;;4716272;30;20037;-75
2022/08/10 06:58:35;;;;;;;2.03;1.10;;;23.10;96.80;;;;;;4710305;30;20049;-75
2022/08/10 07:01:07;;;;;;;5.18;1.70;;;23.20;95.70;;;;;;4715027;30;20041;-76
2022/08/10 07:03:45;;;;;;;2.38;1.00;;;23.20;95.20;;;;;;4711733;30;20048;-76
2022/08/10 07:06:15;;;;;;;2.53;1.25;;;23.20;95.20;;;;;;4710061;30;20040;-75
2022/08/10 07:08:42;;;;;;;2.42;0.93;;;23.30;95.20;;;;;;4692488;30;20052;-75
2022/08/10 07:11:10;;;;;;;1.50;0.73;;;23.30;94.50;;;;;;4702588;30;20044;-76
2022/08/10 07:13:38;;;;;;;2.25;0.93;;;23.50;94.40;;;;;;4716192;30;20454;-75
2022/08/10 07:16:10;;;;;;;2.38;0.70;;;23.50;93.60;;;;;;4705576;30;20045;-76
2022/08/10 07:18:41;;;;;;;2.35;1.00;;;23.50;93.20;;;;;;4702260;30;20072;-75
2022/08/10 07:21:09;;;;;;;1.60;0.50;;;23.50;92.80;;;;;;4697630;30;20044;-76
2022/08/10 07:23:38;;;;;;;2.20;0.63;;;23.50;92.80;;;;;;4718954;30;20049;-76
2022/08/10 07:26:07;;;;;;;2.92;0.95;;;23.50;92.60;;;;;;4714571;30;20037;-76
2022/08/10 07:28:37;;;;;;;3.17;0.85;;;23.60;92.20;;;;;;4720274;30;20049;-75
2022/08/10 07:31:07;;;;;;;2.25;0.70;;;23.60;91.90;;;;;;4717262;30;20045;-76
2022/08/10 07:33:35;;;;;;;1.92;0.75;;;23.70;91.70;;;;;;4706571;30;20378;-75
2022/08/10 07:36:02;;;;;;;2.75;1.00;;;23.80;91.60;;;;;;4707113;30;20498;-75
2022/08/10 07:38:30;;;;;;;1.40;0.80;;;24.00;91.30;;;;;;4712116;30;20041;-75
2022/08/10 07:41:04;;;;;;;4.75;0.77;;;24.10;91.10;;;;;;4719182;30;20470;-76
2022/08/10 07:43:51;;;;;;;2.17;0.60;;;24.20;91.00;;;;;;4712819;30;20064;-75
2022/08/10 07:46:23;;;;;;;2.38;0.60;;;24.40;90.50;;;;;;4699232;30;20410;-75
2022/08/10 07:48:58;;;;;;;1.57;0.80;;;24.50;90.20;;;;;;4704260;30;20037;-75
2022/08/10 07:51:25;;;;;;;1.73;0.60;;;24.60;89.70;;;;;;4720007;30;20041;-76
2022/08/10 07:54:04;;;;;;;2.80;0.50;;;24.70;89.30;;;;;;4719549;30;20041;-75
2022/08/10 07:56:36;;;;;;;1.83;0.77;;;24.80;88.90;;;;;;4718206;30;20037;-75
2022/08/10 07:59:09;;;;;;;1.40;0.60;;;25.00;88.30;;;;;;4691609;30;20048;-75
2022/08/10 08:01:49;;;;;;;3.38;0.82;;;25.10;87.90;;;;;;4710562;30;20044;-75
2022/08/10 08:04:18;;;;;;;1.05;0.50;;;25.20;86.10;;;;;;4709016;30;20391;-75
2022/08/10 08:06:45;;;;;;;1.65;0.73;;;25.30;85.10;;;;;;4712091;30;20479;-75
2022/08/10 08:09:12;;;;;;;2.13;0.70;;;25.40;84.80;;;;;;4709684;30;20037;-75
2022/08/10 08:11:41;;;;;;;1.50;0.50;;;25.50;84.20;;;;;;4708265;30;20045;-75
2022/08/10 08:14:09;;;;;;;2.83;0.85;;;25.70;84.20;;;;;;4711307;30;20037;-76
2022/08/10 08:16:40;;;;;;;2.03;0.88;;;25.80;83.30;;;;;;4704976;30;20037;-75
2022/08/10 08:19:10;;;;;;;1.33;0.60;;;25.90;82.20;;;;;;4711254;30;20378;-75
2022/08/10 08:21:38;;;;;;;1.83;0.50;;;26.00;81.80;;;;;;4710559;30;20483;-75
2022/08/10 08:24:07;;;;;;;3.22;0.80;;;26.10;81.60;;;;;;4711311;30;20060;-75
2022/08/10 08:26:36;;;;;;;1.45;0.60;;;26.30;81.20;;;;;;4689063;30;20040;-75
2022/08/10 08:29:03;;;;;;;2.88;0.50;;;26.50;81.00;;;;;;4710244;30;20057;-75
2022/08/10 08:31:31;;;;;;;0.93;0.50;;;26.60;80.50;;;;;;4708446;30;20045;-75
2022/08/10 08:33:59;;;;;;;1.65;0.68;;;26.80;79.90;;;;;;4702184;30;20034;-75
2022/08/10 08:36:29;;;;;;;1.20;0.60;;;26.90;79.20;;;;;;4709589;30;20575;-76
2022/08/10 08:38:59;;;;;;;2.20;0.73;;;27.10;78.80;;;;;;4686133;30;20494;-76
2022/08/10 08:42:04;;;;;;;1.33;0.70;;;27.30;77.90;;;;;;4712051;30;20049;-77
2022/08/10 08:45:11;;;;;;;1.60;0.93;;;27.40;77.00;;;;;;4700254;30;20045;-76
2022/08/10 08:47:41;;;;;;;1.35;0.70;;;27.50;76.20;;;;;;4687775;30;20056;-76
2022/08/10 08:50:29;;;;;;;2.50;1.52;;;27.60;76.00;;;;;;4699100;30;20041;-77
2022/08/10 08:53:22;;;;;;;11.82;9.73;;;27.70;75.70;;;;;;4698104;30;20144;-76
2022/08/10 08:56:01;;;;;;;6.97;6.28;;;27.80;74.60;;;;;;4714232;30;20494;-76
2022/08/10 08:58:34;;;;;;;4.63;1.63;;;28.10;74.10;;;;;;4702705;30;20041;-76
2022/08/10 09:01:40;;;;;;;4.88;1.25;;;28.20;73.70;;;;;;4716614;30;20048;-76
2022/08/10 09:04:32;;;;;;;1.75;0.85;;;28.30;72.80;;;;;;4694964;30;20037;-76
2022/08/10 09:07:18;;;;;;;3.13;0.90;;;28.30;71.00;;;;;;4704067;30;20064;-76
2022/08/10 09:10:09;;;;;;;1.20;0.63;;;28.40;71.40;;;;;;4716666;30;20037;-75
2022/08/10 09:13:00;;;;;;;2.47;0.60;;;28.50;70.90;;;;;;4711099;30;20041;-76
2022/08/10 09:15:44;;;;;;;5.18;1.05;;;28.60;70.10;;;;;;4711670;30;20056;-76
2022/08/10 09:18:28;;;;;;;1.50;0.70;;;28.60;69.80;;;;;;4713779;30;20056;-75
2022/08/10 09:21:15;;;;;;;3.67;0.73;;;28.70;69.30;;;;;;4716412;30;20106;-75
2022/08/10 09:24:00;;;;;;;1.35;0.70;;;28.80;68.50;;;;;;4713488;30;20080;-76
2022/08/10 09:26:51;;;;;;;1.40;0.60;;;28.80;66.40;;;;;;4716000;30;20045;-75
2022/08/10 09:29:32;;;;;;;2.67;0.82;;;28.80;66.30;;;;;;4715101;30;20055;-76
2022/08/10 09:32:52;;;;;;;2.22;0.60;;;28.80;64.80;;;;;;4713788;30;20036;-76
2022/08/10 09:36:00;;;;;;;2.22;0.70;;;28.80;64.70;;;;;;4701220;30;20056;-76
2022/08/10 09:39:04;;;;;;;0.90;0.60;;;29.00;64.00;;;;;;4717287;30;20044;-76
2022/08/10 09:41:51;;;;;;;1.00;0.60;;;29.00;62.50;;;;;;4697865;30;20041;-76
2022/08/10 09:44:43;;;;;;;3.30;0.80;;;29.00;63.20;;;;;;4714971;30;20041;-77
2022/08/10 09:47:36;;;;;;;4.05;1.38;;;29.10;63.30;;;;;;4682586;30;20078;-76
2022/08/10 09:50:44;;;;;;;2.80;1.30;;;29.10;63.30;;;;;;4710747;30;20056;-76
2022/08/10 09:53:19;;;;;;;1.92;0.60;;;29.20;63.60;;;;;;4705041;30;20053;-77
2022/08/10 09:56:14;;;;;;;1.55;0.60;;;29.30;61.40;;;;;;4698705;30;20052;-76
2022/08/10 09:59:06;;;;;;;1.23;0.50;;;29.40;61.50;;;;;;4710294;30;20041;-76
2022/08/10 10:01:43;;;;;;;;;;;29.40;59.60;;;;;;4712428;30;20060;-75
2022/08/10 10:04:47;;;;;;;1.73;0.50;;;29.50;60.20;;;;;;4697507;30;20012;-76
2022/08/10 10:07:23;;;;;;;2.70;0.60;;;29.60;60.70;;;;;;4710272;30;20393;-75
2022/08/10 10:13:42;;;;;;;3.97;1.92;;;29.70;60.80;;;;;;4665879;30;20038;-75
2022/08/10 10:17:07;;;;;;;;;;;;;;;;;;;;;
2022/08/10 10:19:57;;;;;;;2.80;0.57;;;29.60;59.80;;;;;;4704517;30;20057;-73
2022/08/10 10:22:45;;;;;;;3.22;0.60;;;29.60;59.30;;;;;;4713990;30;20039;-73
2022/08/10 10:25:49;;;;;;;1.10;0.45;;;29.60;59.30;;;;;;4707858;30;20033;-73
2022/08/10 10:28:34;;;;;;;1.58;0.45;;;29.60;58.80;;;;;;4697194;30;20049;-72
2022/08/10 10:31:34;;;;;;;1.85;0.40;;;29.70;57.90;;;;;;4710730;30;20057;-73
2022/08/10 10:34:08;;;;;;;1.60;0.60;;;29.80;57.70;;;;;;4696485;30;20513;-74
2022/08/10 10:36:57;;;;;;;1.00;0.38;;;29.90;58.40;;;;;;4685238;30;20048;-73
2022/08/10 10:39:25;;;;;;;1.17;0.40;;;30.20;58.70;;;;;;4698863;30;20064;-74
2022/08/10 10:42:18;;;;;;;2.97;0.40;;;30.50;57.80;;;;;;4696446;30;20070;-74
2022/08/10 10:45:16;;;;;;;1.60;0.40;;;30.70;57.90;;;;;;4659626;30;20541;-75
2022/08/10 10:48:21;;;;;;;1.17;0.30;;;31.10;58.00;;;;;;4685123;30;20786;-75
2022/08/10 10:51:33;;;;;;;1.70;0.40;;;31.40;57.50;;;;;;4685616;30;20065;-74
2022/08/10 10:54:09;;;;;;;3.25;0.30;;;31.90;57.30;;;;;;4683295;30;20045;-75
2022/08/10 10:56:55;;;;;;;0.80;0.40;;;32.20;54.90;;;;;;4704827;30;20068;-75
2022/08/10 10:59:55;;;;;;;1.83;0.77;;;32.50;54.70;;;;;;4695867;30;20056;-75
2022/08/10 11:03:03;;;;;;;1.50;0.70;;;32.80;54.80;;;;;;4686148;30;20406;-74
2022/08/10 11:05:48;;;;;;;1.42;0.65;;;33.30;54.20;;;;;;4700439;30;20478;-74
2022/08/10 11:08:22;;;;;;;1.00;0.47;;;33.70;52.90;;;;;;4699521;30;20057;-75
2022/08/10 11:11:00;;;;;;;1.25;0.40;;;33.80;51.50;;;;;;4709184;30;20409;-74
2022/08/10 11:13:41;;;;;;;0.73;0.35;;;34.00;51.70;;;;;;4706661;30;20048;-74
2022/08/10 11:16:42;;;;;;;0.82;0.30;;;34.20;51.60;;;;;;4712228;30;20378;-74
2022/08/10 11:19:33;;;;;;;1.83;0.40;;;34.60;51.70;;;;;;4671496;30;20049;-74
2022/08/10 11:22:22;;;;;;;1.60;0.40;;;35.00;50.60;;;;;;4684758;30;20041;-75
2022/08/10 11:25:02;;;;;;;2.58;0.63;;;35.30;49.50;;;;;;4709872;30;20037;-75
2022/08/10 11:27:52;;;;;;;1.48;0.40;;;35.40;49.10;;;;;;4699667;30;20044;-76
2022/08/10 11:30:40;;;;;;;1.77;0.40;;;35.70;49.20;;;;;;4705377;30;20421;-75
2022/08/10 11:33:49;;;;;;;1.40;0.40;;;35.90;46.90;;;;;;4689086;30;20060;-75
2022/08/10 11:37:04;;;;;;;1.15;0.30;;;35.90;45.90;;;;;;4686950;30;20451;-75
2022/08/10 11:40:12;;;;;;;3.53;0.77;;;35.70;45.70;;;;;;4684508;30;20053;-75
2022/08/10 11:43:04;;;;;;;0.65;0.30;;;35.90;45.40;;;;;;4677305;30;20053;-74
2022/08/10 11:46:05;;;;;;;0.98;0.40;;;36.10;45.40;;;;;;4683571;30;20048;-74
2022/08/10 11:48:49;;;;;;;1.30;0.30;;;36.20;45.20;;;;;;4692631;30;20499;-74
2022/08/10 11:51:27;;;;;;;0.70;0.40;;;36.50;45.30;;;;;;4692984;30;20049;-74
2022/08/10 11:54:38;;;;;;;1.48;0.30;;;37.00;44.80;;;;;;4682609;30;20053;-74
2022/08/10 11:57:11;;;;;;;;;;;37.40;44.60;;;;;;4689999;30;20054;-74
2022/08/10 11:59:55;;;;;;;1.40;0.40;;;37.90;44.00;;;;;;4667712;30;19958;-75
2022/08/10 12:02:43;;;;;;;1.63;0.40;;;38.00;42.20;;;;;;4681442;30;20053;-75
2022/08/10 12:05:33;;;;;;;1.05;0.40;;;38.00;42.30;;;;;;4680621;30;20604;-75
2022/08/10 12:08:03;;;;;;;1.45;0.40;;;38.30;41.60;;;;;;4681670;30;20061;-75
2022/08/10 12:10:43;;;;;;;0.80;0.40;;;38.50;41.40;;;;;;4692144;30;20479;-74
2022/08/10 12:13:28;;;;;;;0.80;0.30;;;38.70;41.10;;;;;;4687038;30;20053;-75
2022/08/10 12:16:07;;;;;;;0.82;0.40;;;38.90;40.10;;;;;;4691892;30;20046;-75
2022/08/10 12:18:44;;;;;;;1.50;0.38;;;39.30;40.20;;;;;;4705655;30;20052;-75
2022/08/10 12:21:19;;;;;;;1.48;0.40;;;39.70;39.40;;;;;;4691724;30;20412;-76
2022/08/10 12:23:54;;;;;;;3.15;0.40;;;40.10;39.40;;;;;;4693347;30;20143;-75
2022/08/10 12:26:34;;;;;;;1.20;0.40;;;40.10;37.50;;;;;;4692228;30;20129;-75
2022/08/10 12:29:10;;;;;;;1.73;0.50;;;40.20;37.60;;;;;;4698778;30;20510;-75
2022/08/10 12:31:50;;;;;;;1.75;0.40;;;39.90;37.80;;;;;;4717310;30;20510;-75
2022/08/10 12:34:33;;;;;;;3.08;0.50;;;40.00;37.70;;;;;;4702341;30;20813;-74
2022/08/10 12:37:13;;;;;;;1.15;0.30;;;40.10;36.60;;;;;;4715779;30;20037;-74
2022/08/10 12:39:52;;;;;;;1.33;0.30;;;40.30;37.40;;;;;;4711806;30;20041;-74
2022/08/10 12:42:27;;;;;;;1.15;0.40;;;40.70;37.00;;;;;;4688551;30;20056;-77
2022/08/10 12:45:09;;;;;;;1.27;0.40;;;40.90;36.50;;;;;;4714767;30;20045;-77
2022/08/10 12:48:02;;;;;;;0.73;0.30;;;40.70;36.10;;;;;;4713679;30;20040;-77
2022/08/10 12:50:45;;;;;;;0.88;0.38;;;40.50;36.70;;;;;;4711913;30;20729;-77
2022/08/10 12:53:39;;;;;;;0.47;0.30;;;40.60;36.10;;;;;;4712886;30;20038;-77
2022/08/10 12:56:06;;;;;;;1.15;0.50;;;40.80;36.80;;;;;;4703016;30;20033;-77
2022/08/10 12:58:36;;;;;;;1.83;0.43;;;41.30;36.10;;;;;;4698288;30;20056;-77
2022/08/10 13:01:04;;;;;;;1.20;0.50;;;41.60;35.10;;;;;;4703665;30;20038;-77
2022/08/10 13:03:35;;;;;;;0.70;0.30;;;41.70;35.50;;;;;;4687299;30;20048;-77
2022/08/10 13:06:07;;;;;;;1.48;0.30;;;41.70;35.40;;;;;;4710867;30;20052;-77
2022/08/10 13:11:25;;;;;;;1.10;0.30;;;42.20;34.90;;;;;;4710563;30;20053;-77
2022/08/10 13:14:31;;;;;;;0.60;0.40;;;42.50;34.80;;;;;;4698699;30;20053;-77
2022/08/10 13:17:02;;;;;;;0.90;0.32;;;42.40;34.90;;;;;;4642893;30;20051;-77
2022/08/10 13:19:37;;;;;;;2.35;0.40;;;42.40;33.90;;;;;;4674743;30;20045;-77
2022/08/10 13:22:11;;;;;;;1.17;0.30;;;42.60;34.20;;;;;;4679066;30;20049;-77
2022/08/10 13:24:58;;;;;;;0.52;0.30;;;42.60;33.10;;;;;;4680647;30;20556;-77
2022/08/10 13:27:49;;;;;;;1.02;0.40;;;42.40;33.40;;;;;;4682869;30;20446;-77
2022/08/10 13:30:24;;;;;;;;;;;42.70;33.30;;;;;;4666525;30;20554;-77
2022/08/10 13:33:01;;;;;;;1.00;0.38;;;42.90;33.00;;;;;;4665147;30;19915;-76
2022/08/10 13:35:30;;;;;;;0.75;0.40;;;42.90;33.30;;;;;;4666930;30;20051;-76
2022/08/10 13:38:02;;;;;;;0.82;0.40;;;43.10;33.50;;;;;;4682574;30;20064;-76
2022/08/10 13:40:40;;;;;;;2.22;1.38;;;43.50;33.00;;;;;;4642271;30;20132;-76
2022/08/10 13:43:13;;;;;;;1.70;0.70;;;43.80;33.00;;;;;;4665669;30;20058;-75
2022/08/10 13:45:50;;;;;;;1.20;0.40;;;43.90;32.20;;;;;;4662549;30;20051;-75
2022/08/10 13:48:34;;;;;;;3.17;0.32;;;43.50;31.90;;;;;;4680319;30;20046;-75